sensor_id;sensor_type;location;lat;lon;timestamp;pressure;altitude;pressure_sealevel;temperature;humidity
16613;BME280;8419;52.358;9.752;2023-11-19T00:01:17;100285.00;;;15.14;46.40
16613;BME280;8419;52.358;9.752;2023-11-19T00:04:03;100284.00;;;15.26;46.13
16613;BME280;8419;52.358;9.752;2023-11-19T00:06:50;100270.00;;;15.13;46.48
16613;BME280;8419;52.358;9.752;2023-11-19T00:09:35;100268.00;;;15.07;46.66
16613;BME280;8419;52.358;9.752;2023-11-19T00:12:22;100257.00;;;15.05;46.75
16613;BME280;8419;52.358;9.752;2023-11-19T00:15:11;100251.00;;;15.08;46.81
16613;BME280;8419;52.358;9.752;2023-11-19T00:17:56;100243.00;;;15.08;46.71
16613;BME280;8419;52.358;9.752;2023-11-19T00:20:42;100234.00;;;15.17;46.68
16613;BME280;8419;52.358;9.752;2023-11-19T00:23:30;100214.00;;;15.25;46.53
16613;BME280;8419;52.358;9.752;2023-11-19T00:26:16;100204.00;;;15.29;46.49
16613;BME280;8419;52.358;9.752;2023-11-19T00:29:01;100204.00;;;15.16;46.84
16613;BME280;8419;52.358;9.752;2023-11-19T00:31:47;100193.00;;;15.21;46.72
16613;BME280;8419;52.358;9.752;2023-11-19T00:34:33;100208.00;;;15.22;46.79
16613;BME280;8419;52.358;9.752;2023-11-19T00:37:18;100200.00;;;15.28;46.74
16613;BME280;8419;52.358;9.752;2023-11-19T00:40:06;100205.00;;;15.23;46.86
16613;BME280;8419;52.358;9.752;2023-11-19T00:42:53;100192.00;;;15.28;46.77
16613;BME280;8419;52.358;9.752;2023-11-19T00:45:38;100196.00;;;15.31;46.85
16613;BME280;8419;52.358;9.752;2023-11-19T00:48:24;100192.00;;;15.38;46.73
16613;BME280;8419;52.358;9.752;2023-11-19T00:51:12;100192.00;;;15.44;46.67
16613;BME280;8419;52.358;9.752;2023-11-19T00:53:57;100177.00;;;15.48;46.71
16613;BME280;8419;52.358;9.752;2023-11-19T00:56:44;100168.00;;;15.49;46.71
16613;BME280;8419;52.358;9.752;2023-11-19T00:59:29;100159.00;;;15.47;46.89
16613;BME280;8419;52.358;9.752;2023-11-19T01:02:15;100164.00;;;15.50;46.86
16613;BME280;8419;52.358;9.752;2023-11-19T01:05:04;100160.00;;;15.49;47.02
16613;BME280;8419;52.358;9.752;2023-11-19T01:07:51;100160.00;;;15.58;46.87
16613;BME280;8419;52.358;9.752;2023-11-19T01:10:38;100145.00;;;15.68;46.71
16613;BME280;8419;52.358;9.752;2023-11-19T01:13:24;100133.00;;;15.65;46.85
16613;BME280;8419;52.358;9.752;2023-11-19T01:16:09;100136.00;;;15.77;46.67
16613;BME280;8419;52.358;9.752;2023-11-19T01:18:55;100119.00;;;15.74;46.92
16613;BME280;8419;52.358;9.752;2023-11-19T01:21:41;100119.00;;;15.58;47.43
16613;BME280;8419;52.358;9.752;2023-11-19T01:24:26;100114.00;;;15.74;47.12
16613;BME280;8419;52.358;9.752;2023-11-19T01:27:14;100116.00;;;15.78;47.10
16613;BME280;8419;52.358;9.752;2023-11-19T01:29:59;100103.00;;;15.86;47.05
16613;BME280;8419;52.358;9.752;2023-11-19T01:32:47;100113.00;;;16.11;46.51
16613;BME280;8419;52.358;9.752;2023-11-19T01:35:32;100109.00;;;16.14;46.53
16613;BME280;8419;52.358;9.752;2023-11-19T01:38:17;100113.00;;;16.02;46.86
16613;BME280;8419;52.358;9.752;2023-11-19T01:41:04;100095.00;;;16.03;47.08
16613;BME280;8419;52.358;9.752;2023-11-19T01:43:49;100096.00;;;16.08;47.05
16613;BME280;8419;52.358;9.752;2023-11-19T01:46:36;100095.00;;;16.13;46.97
16613;BME280;8419;52.358;9.752;2023-11-19T01:49:22;100082.00;;;16.09;47.23
16613;BME280;8419;52.358;9.752;2023-11-19T01:52:08;100086.00;;;16.11;47.28
16613;BME280;8419;52.358;9.752;2023-11-19T01:54:54;100084.00;;;16.22;47.09
16613;BME280;8419;52.358;9.752;2023-11-19T01:57:40;100075.00;;;16.20;47.22
16613;BME280;8419;52.358;9.752;2023-11-19T02:00:26;100061.00;;;16.33;47.00
16613;BME280;8419;52.358;9.752;2023-11-19T02:03:14;100077.00;;;16.22;47.28
16613;BME280;8419;52.358;9.752;2023-11-19T02:06:00;100061.00;;;16.35;47.10
16613;BME280;8419;52.358;9.752;2023-11-19T02:08:47;100062.00;;;16.46;46.94
16613;BME280;8419;52.358;9.752;2023-11-19T02:11:33;100050.00;;;16.34;47.29
16613;BME280;8419;52.358;9.752;2023-11-19T02:14:18;100053.00;;;16.47;47.12
16613;BME280;8419;52.358;9.752;2023-11-19T02:17:07;100057.00;;;16.56;47.03
16613;BME280;8419;52.358;9.752;2023-11-19T02:20:10;100048.00;;;16.52;47.14
16613;BME280;8419;52.358;9.752;2023-11-19T02:22:58;100038.00;;;16.57;47.04
16613;BME280;8419;52.358;9.752;2023-11-19T02:25:50;100029.00;;;16.50;47.25
16613;BME280;8419;52.358;9.752;2023-11-19T02:28:41;100020.00;;;16.52;47.32
16613;BME280;8419;52.358;9.752;2023-11-19T02:31:28;100033.00;;;16.66;47.06
16613;BME280;8419;52.358;9.752;2023-11-19T02:34:13;100021.00;;;16.55;47.35
16613;BME280;8419;52.358;9.752;2023-11-19T02:36:59;100025.00;;;16.67;47.19
16613;BME280;8419;52.358;9.752;2023-11-19T02:39:45;100020.00;;;16.72;47.16
16613;BME280;8419;52.358;9.752;2023-11-19T02:42:30;100017.00;;;16.69;47.28
16613;BME280;8419;52.358;9.752;2023-11-19T02:45:17;100014.00;;;16.73;47.24
16613;BME280;8419;52.358;9.752;2023-11-19T02:48:02;100007.00;;;16.74;47.35
16613;BME280;8419;52.358;9.752;2023-11-19T02:50:51;100002.00;;;16.77;47.38
16613;BME280;8419;52.358;9.752;2023-11-19T02:53:37;100006.00;;;16.91;47.21
16613;BME280;8419;52.358;9.752;2023-11-19T02:56:24;99990.00;;;16.88;47.29
16613;BME280;8419;52.358;9.752;2023-11-19T02:59:10;99983.00;;;16.96;47.17
16613;BME280;8419;52.358;9.752;2023-11-19T03:02:12;99971.00;;;16.94;47.27
16613;BME280;8419;52.358;9.752;2023-11-19T03:05:00;99970.00;;;17.02;47.16
16613;BME280;8419;52.358;9.752;2023-11-19T03:07:46;99970.00;;;17.10;47.08
16613;BME280;8419;52.358;9.752;2023-11-19T03:10:32;99961.00;;;17.12;47.08
16613;BME280;8419;52.358;9.752;2023-11-19T03:13:17;99963.00;;;17.05;47.41
16613;BME280;8419;52.358;9.752;2023-11-19T03:16:04;99948.00;;;17.11;47.34
16613;BME280;8419;52.358;9.752;2023-11-19T03:18:50;99939.00;;;17.25;47.08
16613;BME280;8419;52.358;9.752;2023-11-19T03:21:35;99943.00;;;17.14;47.43
16613;BME280;8419;52.358;9.752;2023-11-19T03:24:21;99941.00;;;17.14;47.57
16613;BME280;8419;52.358;9.752;2023-11-19T03:27:10;99945.00;;;17.20;47.57
16613;BME280;8419;52.358;9.752;2023-11-19T03:29:56;99939.00;;;17.25;47.56
16613;BME280;8419;52.358;9.752;2023-11-19T03:32:41;99937.00;;;17.25;47.68
16613;BME280;8419;52.358;9.752;2023-11-19T03:35:26;99936.00;;;17.23;47.77
16613;BME280;8419;52.358;9.752;2023-11-19T03:38:13;99940.00;;;17.22;47.91
16613;BME280;8419;52.358;9.752;2023-11-19T03:41:00;99935.00;;;17.22;47.97
16613;BME280;8419;52.358;9.752;2023-11-19T03:43:46;99935.00;;;17.22;48.09
16613;BME280;8419;52.358;9.752;2023-11-19T03:46:32;99926.00;;;17.28;48.06
16613;BME280;8419;52.358;9.752;2023-11-19T03:49:17;99940.00;;;17.38;47.92
16613;BME280;8419;52.358;9.752;2023-11-19T03:52:04;99937.00;;;17.39;47.99
16613;BME280;8419;52.358;9.752;2023-11-19T03:54:51;99929.00;;;17.36;48.13
16613;BME280;8419;52.358;9.752;2023-11-19T03:57:36;99915.00;;;17.36;48.28
16613;BME280;8419;52.358;9.752;2023-11-19T04:00:22;99910.00;;;17.39;48.30
16613;BME280;8419;52.358;9.752;2023-11-19T04:03:08;99902.00;;;17.46;48.28
16613;BME280;8419;52.358;9.752;2023-11-19T04:05:53;99905.00;;;17.48;48.33
16613;BME280;8419;52.358;9.752;2023-11-19T04:08:39;99902.00;;;17.49;48.29
16613;BME280;8419;52.358;9.752;2023-11-19T04:11:25;99910.00;;;17.54;48.28
16613;BME280;8419;52.358;9.752;2023-11-19T04:14:11;99899.00;;;17.57;48.36
16613;BME280;8419;52.358;9.752;2023-11-19T04:16:56;99896.00;;;17.59;48.41
16613;BME280;8419;52.358;9.752;2023-11-19T04:19:42;99910.00;;;17.63;48.43
16613;BME280;8419;52.358;9.752;2023-11-19T04:22:28;99910.00;;;17.77;48.28
16613;BME280;8419;52.358;9.752;2023-11-19T04:25:14;99908.00;;;17.76;48.31
16613;BME280;8419;52.358;9.752;2023-11-19T04:28:00;99910.00;;;17.84;48.31
16613;BME280;8419;52.358;9.752;2023-11-19T04:30:47;99910.00;;;17.86;48.38
16613;BME280;8419;52.358;9.752;2023-11-19T04:33:32;99912.00;;;17.96;48.26
16613;BME280;8419;52.358;9.752;2023-11-19T04:36:19;99906.00;;;18.09;48.07
16613;BME280;8419;52.358;9.752;2023-11-19T04:39:06;99900.00;;;18.16;47.98
16613;BME280;8419;52.358;9.752;2023-11-19T04:41:54;99914.00;;;18.09;48.26
16613;BME280;8419;52.358;9.752;2023-11-19T04:44:40;99911.00;;;18.10;48.29
16613;BME280;8419;52.358;9.752;2023-11-19T04:47:28;99914.00;;;18.25;48.05
16613;BME280;8419;52.358;9.752;2023-11-19T04:50:13;99906.00;;;18.22;48.19
16613;BME280;8419;52.358;9.752;2023-11-19T04:52:59;99907.00;;;18.24;48.19
16613;BME280;8419;52.358;9.752;2023-11-19T04:55:45;99921.00;;;18.23;48.35
16613;BME280;8419;52.358;9.752;2023-11-19T04:58:30;99911.00;;;18.26;48.40
16613;BME280;8419;52.358;9.752;2023-11-19T05:01:16;99917.00;;;18.43;48.19
16613;BME280;8419;52.358;9.752;2023-11-19T05:04:02;99919.00;;;18.47;48.15
16613;BME280;8419;52.358;9.752;2023-11-19T05:06:48;99902.00;;;18.51;48.10
16613;BME280;8419;52.358;9.752;2023-11-19T05:09:34;99901.00;;;18.35;48.54
16613;BME280;8419;52.358;9.752;2023-11-19T05:12:19;99890.00;;;18.36;48.67
16613;BME280;8419;52.358;9.752;2023-11-19T05:15:07;99893.00;;;18.49;48.47
16613;BME280;8419;52.358;9.752;2023-11-19T05:17:52;99874.00;;;18.55;48.44
16613;BME280;8419;52.358;9.752;2023-11-19T05:20:38;99864.00;;;18.59;48.48
16613;BME280;8419;52.358;9.752;2023-11-19T05:23:24;99863.00;;;18.64;48.50
16613;BME280;8419;52.358;9.752;2023-11-19T05:26:16;99858.00;;;18.64;48.45
16613;BME280;8419;52.358;9.752;2023-11-19T05:29:02;99861.00;;;18.61;48.46
16613;BME280;8419;52.358;9.752;2023-11-19T05:31:47;99863.00;;;18.61;48.55
16613;BME280;8419;52.358;9.752;2023-11-19T05:34:34;99863.00;;;18.60;48.50
16613;BME280;8419;52.358;9.752;2023-11-19T05:37:19;99877.00;;;18.64;48.40
16613;BME280;8419;52.358;9.752;2023-11-19T05:40:07;99866.00;;;18.64;48.40
16613;BME280;8419;52.358;9.752;2023-11-19T05:42:59;99870.00;;;18.50;48.70
16613;BME280;8419;52.358;9.752;2023-11-19T05:45:45;99876.00;;;18.63;48.42
16613;BME280;8419;52.358;9.752;2023-11-19T05:48:31;99873.00;;;18.71;48.30
16613;BME280;8419;52.358;9.752;2023-11-19T05:51:16;99877.00;;;18.77;48.19
16613;BME280;8419;52.358;9.752;2023-11-19T05:54:02;99867.00;;;18.84;48.12
16613;BME280;8419;52.358;9.752;2023-11-19T05:56:48;99863.00;;;18.78;48.31
16613;BME280;8419;52.358;9.752;2023-11-19T05:59:35;99870.00;;;18.65;48.72
16613;BME280;8419;52.358;9.752;2023-11-19T06:02:21;99870.00;;;18.63;48.91
16613;BME280;8419;52.358;9.752;2023-11-19T06:05:07;99866.00;;;18.70;48.97
16613;BME280;8419;52.358;9.752;2023-11-19T06:07:54;99869.00;;;18.77;49.03
16613;BME280;8419;52.358;9.752;2023-11-19T06:10:40;99861.00;;;18.86;49.07
16613;BME280;8419;52.358;9.752;2023-11-19T06:13:26;99853.00;;;19.09;48.87
16613;BME280;8419;52.358;9.752;2023-11-19T06:16:11;99873.00;;;19.04;49.38
16613;BME280;8419;52.358;9.752;2023-11-19T06:18:57;99871.00;;;19.28;49.13
16613;BME280;8419;52.358;9.752;2023-11-19T06:21:43;99879.00;;;19.46;49.14
16613;BME280;8419;52.358;9.752;2023-11-19T06:24:29;99879.00;;;19.57;49.00
16613;BME280;8419;52.358;9.752;2023-11-19T06:27:14;99877.00;;;19.67;49.05
16613;BME280;8419;52.358;9.752;2023-11-19T06:30:00;99884.00;;;19.68;49.14
16613;BME280;8419;52.358;9.752;2023-11-19T06:32:46;99875.00;;;19.69;49.11
16613;BME280;8419;52.358;9.752;2023-11-19T06:35:32;99886.00;;;19.72;49.07
16613;BME280;8419;52.358;9.752;2023-11-19T06:38:20;99892.00;;;19.76;49.05
16613;BME280;8419;52.358;9.752;2023-11-19T06:41:08;99895.00;;;19.76;49.20
16613;BME280;8419;52.358;9.752;2023-11-19T06:43:55;99885.00;;;19.90;48.98
16613;BME280;8419;52.358;9.752;2023-11-19T06:46:42;99890.00;;;19.97;48.85
16613;BME280;8419;52.358;9.752;2023-11-19T06:49:27;99894.00;;;20.09;48.66
16613;BME280;8419;52.358;9.752;2023-11-19T06:52:13;99891.00;;;20.11;48.65
16613;BME280;8419;52.358;9.752;2023-11-19T06:54:59;99895.00;;;20.18;48.51
16613;BME280;8419;52.358;9.752;2023-11-19T06:57:44;99897.00;;;20.17;48.55
16613;BME280;8419;52.358;9.752;2023-11-19T07:00:30;99889.00;;;20.21;48.51
16613;BME280;8419;52.358;9.752;2023-11-19T07:03:17;99898.00;;;20.06;48.90
16613;BME280;8419;52.358;9.752;2023-11-19T07:06:04;99907.00;;;20.08;48.82
16613;BME280;8419;52.358;9.752;2023-11-19T07:08:53;99911.00;;;20.19;48.56
16613;BME280;8419;52.358;9.752;2023-11-19T07:11:42;99913.00;;;20.19;48.55
16613;BME280;8419;52.358;9.752;2023-11-19T07:14:30;99916.00;;;20.10;48.73
16613;BME280;8419;52.358;9.752;2023-11-19T07:17:18;99929.00;;;20.02;48.76
16613;BME280;8419;52.358;9.752;2023-11-19T07:20:06;99924.00;;;19.82;49.14
16613;BME280;8419;52.358;9.752;2023-11-19T07:22:52;99925.00;;;19.78;49.14
16613;BME280;8419;52.358;9.752;2023-11-19T07:25:38;99924.00;;;19.66;49.27
16613;BME280;8419;52.358;9.752;2023-11-19T07:28:24;99938.00;;;19.71;49.06
16613;BME280;8419;52.358;9.752;2023-11-19T07:31:10;99937.00;;;19.69;49.12
16613;BME280;8419;52.358;9.752;2023-11-19T07:33:55;99941.00;;;19.76;49.03
16613;BME280;8419;52.358;9.752;2023-11-19T07:36:40;99955.00;;;19.74;49.12
16613;BME280;8419;52.358;9.752;2023-11-19T07:39:27;99949.00;;;19.93;48.68
16613;BME280;8419;52.358;9.752;2023-11-19T07:42:13;99947.00;;;19.96;48.53
16613;BME280;8419;52.358;9.752;2023-11-19T07:45:01;99936.00;;;20.01;48.32
16613;BME280;8419;52.358;9.752;2023-11-19T07:47:46;99952.00;;;20.12;47.94
16613;BME280;8419;52.358;9.752;2023-11-19T07:50:32;99955.00;;;20.21;47.49
16613;BME280;8419;52.358;9.752;2023-11-19T07:53:19;99943.00;;;20.31;47.31
16613;BME280;8419;52.358;9.752;2023-11-19T07:56:06;99941.00;;;20.33;47.10
16613;BME280;8419;52.358;9.752;2023-11-19T07:58:52;99950.00;;;20.40;46.86
16613;BME280;8419;52.358;9.752;2023-11-19T08:01:38;99955.00;;;20.46;46.69
16613;BME280;8419;52.358;9.752;2023-11-19T08:04:24;99963.00;;;20.49;46.48
16613;BME280;8419;52.358;9.752;2023-11-19T08:07:12;99963.00;;;20.51;46.22
16613;BME280;8419;52.358;9.752;2023-11-19T08:10:07;99975.00;;;20.39;46.32
16613;BME280;8419;52.358;9.752;2023-11-19T08:12:55;99969.00;;;20.60;45.92
16613;BME280;8419;52.358;9.752;2023-11-19T08:15:41;99969.00;;;20.58;45.81
16613;BME280;8419;52.358;9.752;2023-11-19T08:18:27;99963.00;;;20.57;45.66
16613;BME280;8419;52.358;9.752;2023-11-19T08:21:15;99976.00;;;20.65;45.40
16613;BME280;8419;52.358;9.752;2023-11-19T08:24:01;99964.00;;;20.26;45.97
16613;BME280;8419;52.358;9.752;2023-11-19T08:26:47;99969.00;;;20.61;45.22
16613;BME280;8419;52.358;9.752;2023-11-19T08:29:37;99977.00;;;20.60;44.98
16613;BME280;8419;52.358;9.752;2023-11-19T08:32:24;99968.00;;;20.31;45.47
16613;BME280;8419;52.358;9.752;2023-11-19T08:35:13;99968.00;;;20.38;44.98
16613;BME280;8419;52.358;9.752;2023-11-19T08:38:01;99989.00;;;20.37;44.86
16613;BME280;8419;52.358;9.752;2023-11-19T08:40:52;99972.00;;;20.45;44.60
16613;BME280;8419;52.358;9.752;2023-11-19T08:43:44;99987.00;;;20.54;44.31
16613;BME280;8419;52.358;9.752;2023-11-19T08:46:34;99974.00;;;20.57;44.07
16613;BME280;8419;52.358;9.752;2023-11-19T08:49:25;99979.00;;;20.64;43.97
16613;BME280;8419;52.358;9.752;2023-11-19T08:52:16;99979.00;;;20.67;43.82
16613;BME280;8419;52.358;9.752;2023-11-19T08:55:02;99974.00;;;20.77;43.72
16613;BME280;8419;52.358;9.752;2023-11-19T08:57:50;99980.00;;;20.77;43.66
16613;BME280;8419;52.358;9.752;2023-11-19T09:00:36;99975.00;;;20.74;43.51
16613;BME280;8419;52.358;9.752;2023-11-19T09:03:21;99973.00;;;20.70;43.50
16613;BME280;8419;52.358;9.752;2023-11-19T09:06:08;99980.00;;;20.90;43.26
16613;BME280;8419;52.358;9.752;2023-11-19T09:08:53;99994.00;;;21.10;43.00
16613;BME280;8419;52.358;9.752;2023-11-19T09:11:43;100004.00;;;21.24;42.79
16613;BME280;8419;52.358;9.752;2023-11-19T09:14:29;99996.00;;;21.26;42.18
16613;BME280;8419;52.358;9.752;2023-11-19T09:17:17;99995.00;;;21.19;42.40
16613;BME280;8419;52.358;9.752;2023-11-19T09:20:05;99999.00;;;20.95;42.66
16613;BME280;8419;52.358;9.752;2023-11-19T09:22:51;100001.00;;;21.00;42.54
16613;BME280;8419;52.358;9.752;2023-11-19T09:25:51;99995.00;;;20.93;42.64
16613;BME280;8419;52.358;9.752;2023-11-19T09:28:44;100016.00;;;21.12;42.45
16613;BME280;8419;52.358;9.752;2023-11-19T09:31:30;100012.00;;;21.20;42.21
16613;BME280;8419;52.358;9.752;2023-11-19T09:34:17;100014.00;;;21.30;42.13
16613;BME280;8419;52.358;9.752;2023-11-19T09:37:04;100016.00;;;21.09;42.47
16613;BME280;8419;52.358;9.752;2023-11-19T09:39:50;100027.00;;;21.06;42.59
16613;BME280;8419;52.358;9.752;2023-11-19T09:42:43;100016.00;;;21.06;42.30
16613;BME280;8419;52.358;9.752;2023-11-19T09:45:36;100008.00;;;21.10;42.24
16613;BME280;8419;52.358;9.752;2023-11-19T09:48:32;100015.00;;;21.15;42.11
16613;BME280;8419;52.358;9.752;2023-11-19T09:51:19;100014.00;;;21.30;42.03
16613;BME280;8419;52.358;9.752;2023-11-19T09:54:07;100016.00;;;21.54;41.63
16613;BME280;8419;52.358;9.752;2023-11-19T09:56:53;100014.00;;;21.61;41.54
16613;BME280;8419;52.358;9.752;2023-11-19T09:59:40;100005.00;;;21.80;41.23
16613;BME280;8419;52.358;9.752;2023-11-19T10:02:27;100002.00;;;21.68;41.06
16613;BME280;8419;52.358;9.752;2023-11-19T10:05:16;100011.00;;;21.56;41.14
16613;BME280;8419;52.358;9.752;2023-11-19T10:08:03;99992.00;;;21.20;41.43
16613;BME280;8419;52.358;9.752;2023-11-19T10:10:49;100010.00;;;21.41;40.87
16613;BME280;8419;52.358;9.752;2023-11-19T10:13:35;100011.00;;;21.45;40.64
16613;BME280;8419;52.358;9.752;2023-11-19T10:16:34;100002.00;;;21.29;40.85
16613;BME280;8419;52.358;9.752;2023-11-19T10:19:20;100007.00;;;21.35;40.84
16613;BME280;8419;52.358;9.752;2023-11-19T10:22:06;100007.00;;;21.55;40.36
16613;BME280;8419;52.358;9.752;2023-11-19T10:24:53;100014.00;;;21.53;40.20
16613;BME280;8419;52.358;9.752;2023-11-19T10:27:41;100000.00;;;21.43;40.48
16613;BME280;8419;52.358;9.752;2023-11-19T10:30:30;99994.00;;;21.43;40.64
16613;BME280;8419;52.358;9.752;2023-11-19T10:33:16;100006.00;;;21.19;41.37
16613;BME280;8419;52.358;9.752;2023-11-19T10:36:06;100000.00;;;20.86;42.07
16613;BME280;8419;52.358;9.752;2023-11-19T10:38:58;99995.00;;;20.75;42.41
16613;BME280;8419;52.358;9.752;2023-11-19T10:41:44;100013.00;;;20.75;42.43
16613;BME280;8419;52.358;9.752;2023-11-19T10:44:33;100000.00;;;20.70;42.37
16613;BME280;8419;52.358;9.752;2023-11-19T10:47:23;100006.00;;;20.74;42.34
16613;BME280;8419;52.358;9.752;2023-11-19T10:50:12;100014.00;;;20.85;42.14
16613;BME280;8419;52.358;9.752;2023-11-19T10:53:00;100003.00;;;21.08;41.64
16613;BME280;8419;52.358;9.752;2023-11-19T10:55:48;100000.00;;;21.15;41.50
16613;BME280;8419;52.358;9.752;2023-11-19T10:58:34;99995.00;;;21.15;41.28
16613;BME280;8419;52.358;9.752;2023-11-19T11:01:25;100014.00;;;21.19;41.08
16613;BME280;8419;52.358;9.752;2023-11-19T11:04:14;100012.00;;;21.26;41.06
16613;BME280;8419;52.358;9.752;2023-11-19T11:07:00;100010.00;;;21.54;40.70
16613;BME280;8419;52.358;9.752;2023-11-19T11:09:47;99995.00;;;21.59;40.61
16613;BME280;8419;52.358;9.752;2023-11-19T11:12:37;99993.00;;;21.69;40.43
16613;BME280;8419;52.358;9.752;2023-11-19T11:15:24;100009.00;;;21.92;40.21
16613;BME280;8419;52.358;9.752;2023-11-19T11:18:10;100011.00;;;22.06;39.92
16613;BME280;8419;52.358;9.752;2023-11-19T11:21:03;99983.00;;;22.22;39.70
16613;BME280;8419;52.358;9.752;2023-11-19T11:24:16;99989.00;;;22.12;39.68
16613;BME280;8419;52.358;9.752;2023-11-19T11:27:20;100002.00;;;22.25;39.80
16613;BME280;8419;52.358;9.752;2023-11-19T11:30:24;99997.00;;;22.24;39.43
16613;BME280;8419;52.358;9.752;2023-11-19T11:33:25;99999.00;;;22.15;39.32
16613;BME280;8419;52.358;9.752;2023-11-19T11:36:20;100012.00;;;22.32;39.36
16613;BME280;8419;52.358;9.752;2023-11-19T11:39:08;100009.00;;;22.45;39.24
16613;BME280;8419;52.358;9.752;2023-11-19T11:45:15;99986.00;;;22.66;38.28
16613;BME280;8419;52.358;9.752;2023-11-19T11:48:12;99997.00;;;22.50;38.39
16613;BME280;8419;52.358;9.752;2023-11-19T11:51:01;100029.00;;;22.52;38.60
16613;BME280;8419;52.358;9.752;2023-11-19T11:53:48;100015.00;;;22.44;38.26
16613;BME280;8419;52.358;9.752;2023-11-19T11:56:39;100001.00;;;22.42;38.39
16613;BME280;8419;52.358;9.752;2023-11-19T11:59:25;100005.00;;;22.40;38.19
16613;BME280;8419;52.358;9.752;2023-11-19T12:02:12;99999.00;;;22.22;38.56
16613;BME280;8419;52.358;9.752;2023-11-19T12:04:58;100002.00;;;22.27;38.68
16613;BME280;8419;52.358;9.752;2023-11-19T12:07:55;100005.00;;;22.32;38.81
16613;BME280;8419;52.358;9.752;2023-11-19T12:10:58;100009.00;;;22.50;38.70
16613;BME280;8419;52.358;9.752;2023-11-19T12:13:57;100001.00;;;22.75;38.45
16613;BME280;8419;52.358;9.752;2023-11-19T12:16:48;99988.00;;;22.55;38.56
16613;BME280;8419;52.358;9.752;2023-11-19T12:19:36;99994.00;;;22.51;38.28
16613;BME280;8419;52.358;9.752;2023-11-19T12:22:26;99996.00;;;22.36;38.70
16613;BME280;8419;52.358;9.752;2023-11-19T12:25:12;100000.00;;;22.33;38.71
16613;BME280;8419;52.358;9.752;2023-11-19T12:28:00;99998.00;;;22.28;38.84
16613;BME280;8419;52.358;9.752;2023-11-19T12:30:50;99992.00;;;22.48;38.65
16613;BME280;8419;52.358;9.752;2023-11-19T12:33:36;100012.00;;;22.47;38.42
16613;BME280;8419;52.358;9.752;2023-11-19T12:36:24;100003.00;;;22.37;38.64
16613;BME280;8419;52.358;9.752;2023-11-19T12:39:10;99999.00;;;22.37;38.43
16613;BME280;8419;52.358;9.752;2023-11-19T12:41:59;99998.00;;;22.29;38.39
16613;BME280;8419;52.358;9.752;2023-11-19T12:44:55;99993.00;;;22.23;38.51
16613;BME280;8419;52.358;9.752;2023-11-19T12:47:41;99996.00;;;22.26;38.48
16613;BME280;8419;52.358;9.752;2023-11-19T12:50:27;99996.00;;;22.16;38.61
16613;BME280;8419;52.358;9.752;2023-11-19T12:53:19;99988.00;;;22.05;38.79
16613;BME280;8419;52.358;9.752;2023-11-19T12:56:17;100018.00;;;21.94;38.93
16613;BME280;8419;52.358;9.752;2023-11-19T12:59:11;99997.00;;;21.85;39.12
16613;BME280;8419;52.358;9.752;2023-11-19T13:01:58;100004.00;;;21.81;39.21
16613;BME280;8419;52.358;9.752;2023-11-19T13:04:45;99995.00;;;21.64;39.43
16613;BME280;8419;52.358;9.752;2023-11-19T13:07:31;100002.00;;;21.57;39.63
16613;BME280;8419;52.358;9.752;2023-11-19T13:10:17;99998.00;;;21.53;39.74
16613;BME280;8419;52.358;9.752;2023-11-19T13:13:04;99994.00;;;21.58;39.61
16613;BME280;8419;52.358;9.752;2023-11-19T13:15:50;99981.00;;;21.52;39.77
16613;BME280;8419;52.358;9.752;2023-11-19T13:18:35;99981.00;;;21.48;39.83
16613;BME280;8419;52.358;9.752;2023-11-19T13:21:21;99980.00;;;21.47;39.90
16613;BME280;8419;52.358;9.752;2023-11-19T13:24:07;99992.00;;;21.45;40.00
16613;BME280;8419;52.358;9.752;2023-11-19T13:26:52;99989.00;;;21.48;39.98
16613;BME280;8419;52.358;9.752;2023-11-19T13:29:41;99978.00;;;21.41;40.20
16613;BME280;8419;52.358;9.752;2023-11-19T13:32:26;99972.00;;;21.47;40.21
16613;BME280;8419;52.358;9.752;2023-11-19T13:35:12;99975.00;;;21.44;40.33
16613;BME280;8419;52.358;9.752;2023-11-19T13:37:58;99985.00;;;21.41;40.49
16613;BME280;8419;52.358;9.752;2023-11-19T13:40:45;99978.00;;;21.43;40.55
16613;BME280;8419;52.358;9.752;2023-11-19T13:43:32;99967.00;;;21.37;40.65
16613;BME280;8419;52.358;9.752;2023-11-19T13:46:18;99966.00;;;21.35;40.82
16613;BME280;8419;52.358;9.752;2023-11-19T13:49:03;99963.00;;;21.37;40.86
16613;BME280;8419;52.358;9.752;2023-11-19T13:51:49;99960.00;;;21.36;40.92
16613;BME280;8419;52.358;9.752;2023-11-19T13:54:36;99970.00;;;21.36;40.96
16613;BME280;8419;52.358;9.752;2023-11-19T13:57:21;99961.00;;;21.32;41.04
16613;BME280;8419;52.358;9.752;2023-11-19T14:00:12;99957.00;;;21.31;40.99
16613;BME280;8419;52.358;9.752;2023-11-19T14:02:58;99956.00;;;21.36;40.90
16613;BME280;8419;52.358;9.752;2023-11-19T14:05:44;99959.00;;;21.43;40.75
16613;BME280;8419;52.358;9.752;2023-11-19T14:08:30;99984.00;;;21.31;40.91
16613;BME280;8419;52.358;9.752;2023-11-19T14:11:18;99971.00;;;21.30;40.93
16613;BME280;8419;52.358;9.752;2023-11-19T14:14:04;99964.00;;;21.35;40.84
16613;BME280;8419;52.358;9.752;2023-11-19T14:16:52;99991.00;;;21.36;40.90
16613;BME280;8419;52.358;9.752;2023-11-19T14:19:37;99955.00;;;21.35;40.93
16613;BME280;8419;52.358;9.752;2023-11-19T14:22:26;99980.00;;;21.58;40.58
16613;BME280;8419;52.358;9.752;2023-11-19T14:25:12;99971.00;;;21.57;40.64
16613;BME280;8419;52.358;9.752;2023-11-19T14:27:58;99964.00;;;21.70;40.42
16613;BME280;8419;52.358;9.752;2023-11-19T14:30:43;99957.00;;;21.64;40.44
16613;BME280;8419;52.358;9.752;2023-11-19T14:33:30;99951.00;;;21.43;40.83
16613;BME280;8419;52.358;9.752;2023-11-19T14:36:16;99967.00;;;21.31;41.01
16613;BME280;8419;52.358;9.752;2023-11-19T14:39:01;99962.00;;;21.17;41.14
16613;BME280;8419;52.358;9.752;2023-11-19T14:41:47;99965.00;;;21.14;41.17
16613;BME280;8419;52.358;9.752;2023-11-19T14:44:34;99960.00;;;21.14;41.10
16613;BME280;8419;52.358;9.752;2023-11-19T14:47:19;99964.00;;;21.15;41.02
16613;BME280;8419;52.358;9.752;2023-11-19T14:50:07;99971.00;;;20.69;41.88
16613;BME280;8419;52.358;9.752;2023-11-19T14:52:55;99953.00;;;20.48;42.56
16613;BME280;8419;52.358;9.752;2023-11-19T14:55:40;99952.00;;;19.96;43.78
16613;BME280;8419;52.358;9.752;2023-11-19T14:58:26;99955.00;;;19.42;45.06